createdAt,value
2017-12-03T00:00:58.940Z,20.80
2017-12-03T00:03:28.062Z,22.70
2017-12-03T00:05:56.445Z,22.13
2017-12-03T00:08:24.814Z,23.17
2017-12-03T00:10:53.324Z,22.63
2017-12-03T00:13:21.675Z,22.93
2017-12-03T00:15:50.006Z,23.33
2017-12-03T00:18:18.449Z,23.13
2017-12-03T00:20:46.785Z,21.63
2017-12-03T00:23:15.890Z,22.20
2017-12-03T00:25:45.078Z,23.03
2017-12-03T00:28:14.199Z,22.63
2017-12-03T00:30:42.594Z,21.63
2017-12-03T00:33:10.955Z,22.13
2017-12-03T00:35:40.075Z,25.13
2017-12-03T00:38:08.452Z,22.03
2017-12-03T00:40:36.900Z,20.77
2017-12-03T00:43:05.311Z,21.30
2017-12-03T00:45:33.690Z,22.70
2017-12-03T00:48:02.036Z,21.63
2017-12-03T00:50:31.161Z,22.30
2017-12-03T00:52:59.500Z,22.60
2017-12-03T00:55:27.848Z,22.73
2017-12-03T00:57:56.196Z,21.50
2017-12-03T01:00:24.550Z,21.33
2017-12-03T01:02:53.678Z,22.47
2017-12-03T01:05:22.116Z,23.37
2017-12-03T01:07:50.457Z,22.50
2017-12-03T01:10:18.844Z,22.30
2017-12-03T01:12:47.217Z,21.60
2017-12-03T01:15:15.564Z,20.77
2017-12-03T01:17:43.907Z,22.67
2017-12-03T01:20:13.032Z,21.07
2017-12-03T01:22:41.420Z,21.50
2017-12-03T01:25:09.791Z,22.33
2017-12-03T01:27:38.121Z,21.80
2017-12-03T01:30:06.583Z,22.33
2017-12-03T01:32:35.028Z,20.67
2017-12-03T01:35:03.430Z,21.83
2017-12-03T01:37:32.127Z,22.40
2017-12-03T01:40:00.675Z,21.97
2017-12-03T01:42:29.896Z,22.27
2017-12-03T01:44:58.318Z,21.17
2017-12-03T01:47:26.663Z,22.30
2017-12-03T01:49:55.012Z,21.93
2017-12-03T01:52:23.396Z,21.97
2017-12-03T01:54:51.745Z,21.40
2017-12-03T01:57:20.899Z,23.50
2017-12-03T01:59:49.255Z,21.73
2017-12-03T02:02:17.740Z,22.07
2017-12-03T02:04:46.182Z,23.77
2017-12-03T02:07:14.535Z,22.93
2017-12-03T02:09:42.868Z,23.47
2017-12-03T02:12:11.235Z,22.47
2017-12-03T02:14:40.331Z,23.70
2017-12-03T02:17:09.462Z,23.30
2017-12-03T02:19:37.803Z,23.10
2017-12-03T02:22:06.936Z,23.00
2017-12-03T02:24:35.295Z,24.60
2017-12-03T02:27:03.664Z,23.00
2017-12-03T02:29:32.759Z,24.53
2017-12-03T02:32:01.906Z,24.03
2017-12-03T02:34:30.359Z,23.40
2017-12-03T02:36:58.717Z,24.13
2017-12-03T02:39:28.041Z,25.07
2017-12-03T02:41:56.397Z,23.13
2017-12-03T02:44:25.529Z,23.90
2017-12-03T02:46:53.896Z,23.03
2017-12-03T02:49:22.265Z,22.50
2017-12-03T02:51:50.597Z,25.17
2017-12-03T02:54:18.972Z,26.43
2017-12-03T02:56:47.322Z,25.67
2017-12-03T02:59:15.688Z,25.80
2017-12-03T03:01:44.098Z,26.57
2017-12-03T03:04:12.459Z,27.47
2017-12-03T03:06:40.795Z,27.73
2017-12-03T03:09:09.992Z,28.40
2017-12-03T03:11:38.347Z,28.37
2017-12-03T03:14:06.778Z,27.83
2017-12-03T03:16:35.156Z,28.73
2017-12-03T03:19:04.167Z,27.40
2017-12-03T03:21:32.516Z,29.90
2017-12-03T03:24:01.867Z,27.47
2017-12-03T03:26:30.218Z,29.33
2017-12-03T03:28:58.572Z,26.60
2017-12-03T03:31:26.906Z,29.60
2017-12-03T03:33:55.268Z,28.40
2017-12-03T03:36:23.612Z,29.70
2017-12-03T03:38:52.715Z,28.50
2017-12-03T03:41:21.268Z,27.07
2017-12-03T03:43:49.601Z,27.23
2017-12-03T03:46:18.082Z,26.83
2017-12-03T03:48:46.424Z,27.63
2017-12-03T03:51:15.541Z,27.73
2017-12-03T03:53:43.878Z,26.90
2017-12-03T03:56:12.248Z,26.93
2017-12-03T03:58:40.588Z,26.97
2017-12-03T04:01:08.969Z,25.60
2017-12-03T04:03:37.345Z,25.77
2017-12-03T04:06:05.699Z,24.50
2017-12-03T04:08:34.811Z,25.47
2017-12-03T04:11:03.190Z,27.13
2017-12-03T04:13:31.523Z,27.87
2017-12-03T04:15:59.888Z,25.20
2017-12-03T04:18:28.223Z,26.73
2017-12-03T04:20:56.682Z,25.60
2017-12-03T04:23:25.787Z,25.20
2017-12-03T04:25:54.147Z,25.80
2017-12-03T04:28:22.496Z,24.03
2017-12-03T04:30:50.838Z,24.77
2017-12-03T04:33:19.230Z,25.83
2017-12-03T04:35:47.592Z,25.47
2017-12-03T04:38:15.988Z,25.83
2017-12-03T04:40:44.338Z,25.07
2017-12-03T04:43:12.689Z,24.80
2017-12-03T04:45:41.043Z,25.30
2017-12-03T04:48:09.392Z,26.13
2017-12-03T04:50:37.773Z,25.97
2017-12-03T04:53:06.111Z,25.67
2017-12-03T04:55:34.464Z,26.63
2017-12-03T04:58:02.804Z,24.77
2017-12-03T05:00:31.164Z,25.63
2017-12-03T05:02:59.522Z,23.67
2017-12-03T05:05:27.853Z,25.57
2017-12-03T05:07:56.215Z,23.97
2017-12-03T05:10:24.679Z,25.10
2017-12-03T05:12:53.886Z,24.33
2017-12-03T05:15:23.072Z,25.97
2017-12-03T05:17:52.420Z,23.37
2017-12-03T05:20:20.882Z,22.63
2017-12-03T05:22:49.221Z,23.00
2017-12-03T05:25:17.555Z,23.37
2017-12-03T05:27:45.925Z,22.73
2017-12-03T05:30:14.257Z,23.70
2017-12-03T05:32:42.605Z,22.97
2017-12-03T05:35:11.015Z,22.83
2017-12-03T05:37:39.370Z,22.50
2017-12-03T05:40:07.791Z,23.37
2017-12-03T05:42:36.907Z,22.37
2017-12-03T05:45:05.251Z,21.27
2017-12-03T05:47:33.595Z,21.73
2017-12-03T05:50:02.049Z,21.37
2017-12-03T05:52:30.429Z,20.83
2017-12-03T05:54:58.774Z,21.10
2017-12-03T05:57:27.882Z,21.40
2017-12-03T05:59:56.986Z,20.97
2017-12-03T06:02:25.334Z,20.20
2017-12-03T06:04:53.772Z,19.27
2017-12-03T06:07:22.114Z,19.03
2017-12-03T06:09:50.477Z,18.60
2017-12-03T06:12:18.820Z,18.40
2017-12-03T06:14:47.164Z,18.27
2017-12-03T06:17:16.443Z,18.40
2017-12-03T06:19:45.733Z,18.67
2017-12-03T06:22:14.062Z,17.23
2017-12-03T06:24:42.406Z,18.97
2017-12-03T06:27:11.525Z,17.43
2017-12-03T06:29:39.868Z,17.07
2017-12-03T06:32:08.212Z,17.07
2017-12-03T06:34:36.555Z,16.50
2017-12-03T06:37:04.936Z,15.73
2017-12-03T06:39:33.275Z,15.80
2017-12-03T06:42:01.649Z,16.27
2017-12-03T06:44:29.988Z,16.60
2017-12-03T06:46:58.332Z,15.77
2017-12-03T06:49:27.444Z,16.43
2017-12-03T06:51:55.834Z,14.37
2017-12-03T06:54:24.179Z,15.57
2017-12-03T06:56:53.288Z,15.47
2017-12-03T06:59:23.130Z,16.83
2017-12-03T07:01:51.660Z,15.00
2017-12-03T07:04:20.017Z,15.33
2017-12-03T07:06:48.456Z,15.20
2017-12-03T07:09:16.845Z,16.80
2017-12-03T07:11:45.232Z,15.13
2017-12-03T07:14:13.580Z,15.93
2017-12-03T07:16:42.225Z,17.17
2017-12-03T07:19:10.543Z,15.80
2017-12-03T07:21:39.647Z,16.63
2017-12-03T07:24:08.031Z,17.67
2017-12-03T07:26:36.487Z,17.37
2017-12-03T07:29:05.213Z,17.57
2017-12-03T07:31:33.519Z,16.87
2017-12-03T07:34:01.880Z,16.93
2017-12-03T07:36:39.065Z,17.20
2017-12-03T07:39:07.424Z,16.80
2017-12-03T07:41:35.776Z,16.03
2017-12-03T07:44:04.875Z,15.87
2017-12-03T07:46:34.016Z,16.40
2017-12-03T07:49:02.361Z,16.73
2017-12-03T07:51:30.713Z,17.87
2017-12-03T07:53:59.056Z,17.60
2017-12-03T07:56:27.396Z,16.57
2017-12-03T07:58:55.792Z,17.43
2017-12-03T08:01:24.128Z,16.30
2017-12-03T08:03:52.510Z,16.67
2017-12-03T08:06:20.937Z,16.87
2017-12-03T08:08:49.291Z,17.73
2017-12-03T08:11:18.411Z,17.40
2017-12-03T08:13:46.754Z,17.67
2017-12-03T08:16:15.864Z,16.13
2017-12-03T08:18:44.227Z,17.33
2017-12-03T08:21:13.327Z,17.33
2017-12-03T08:23:42.450Z,15.67
2017-12-03T08:26:10.777Z,14.97
2017-12-03T08:28:39.116Z,16.17
2017-12-03T08:31:07.460Z,16.37
2017-12-03T08:33:36.590Z,14.90
2017-12-03T08:36:04.974Z,15.90
2017-12-03T08:38:33.356Z,15.67
2017-12-03T08:41:01.685Z,14.53
2017-12-03T08:43:30.836Z,14.17
2017-12-03T08:45:59.158Z,14.80
2017-12-03T08:48:27.508Z,15.27
2017-12-03T08:50:55.839Z,14.87
2017-12-03T08:53:24.385Z,14.90
2017-12-03T08:55:52.720Z,15.23
2017-12-03T08:58:21.062Z,15.33
2017-12-03T09:00:50.179Z,15.93
2017-12-03T09:03:18.526Z,15.77
2017-12-03T09:05:46.877Z,15.53
2017-12-03T09:08:15.347Z,15.13
2017-12-03T09:10:43.867Z,15.43
2017-12-03T09:13:12.212Z,14.70
2017-12-03T09:15:40.565Z,15.87
2017-12-03T09:18:08.911Z,15.63
2017-12-03T09:20:38.053Z,15.40
2017-12-03T09:23:06.400Z,15.37
2017-12-03T09:25:34.762Z,15.00
2017-12-03T09:28:04.089Z,15.80
2017-12-03T09:30:33.196Z,16.70
2017-12-03T09:33:01.540Z,15.63
2017-12-03T09:35:30.048Z,17.33
2017-12-03T09:37:58.447Z,16.53
2017-12-03T09:40:26.785Z,15.90
2017-12-03T09:42:55.930Z,16.30
2017-12-03T09:45:24.505Z,16.83
2017-12-03T09:47:52.872Z,18.10
2017-12-03T09:50:21.228Z,17.73
2017-12-03T09:52:50.383Z,18.40
2017-12-03T09:55:18.931Z,18.10
2017-12-03T09:57:47.338Z,18.73
2017-12-03T10:00:15.699Z,18.37
2017-12-03T10:02:44.066Z,17.63
2017-12-03T10:05:12.448Z,18.67
2017-12-03T10:07:40.793Z,18.67
2017-12-03T10:10:09.228Z,19.33
2017-12-03T10:12:37.587Z,19.37
2017-12-03T10:15:05.978Z,18.40
2017-12-03T10:17:34.324Z,18.90
2017-12-03T10:20:02.689Z,19.30
2017-12-03T10:22:31.128Z,18.47
2017-12-03T10:24:59.451Z,18.60
2017-12-03T10:27:28.563Z,19.17
2017-12-03T10:29:56.899Z,17.50
2017-12-03T10:32:25.260Z,17.87
2017-12-03T10:34:53.595Z,17.93
2017-12-03T10:37:22.700Z,18.70
2017-12-03T10:39:51.052Z,19.00
2017-12-03T10:42:19.389Z,18.83
2017-12-03T10:44:47.741Z,17.40
2017-12-03T10:47:16.082Z,18.50
2017-12-03T10:49:44.622Z,18.47
2017-12-03T10:52:12.982Z,17.33
2017-12-03T10:54:41.336Z,16.57
2017-12-03T10:57:09.726Z,18.40
2017-12-03T10:59:38.822Z,18.37
2017-12-03T11:02:08.224Z,18.47
2017-12-03T11:04:36.637Z,19.10
2017-12-03T11:07:05.118Z,18.73
2017-12-03T11:09:33.467Z,17.77
2017-12-03T11:12:01.807Z,18.90
2017-12-03T11:14:30.155Z,19.17
2017-12-03T11:16:58.492Z,20.07
2017-12-03T11:19:27.621Z,18.47
2017-12-03T11:21:55.965Z,18.60
2017-12-03T11:24:25.110Z,18.17
2017-12-03T11:26:53.465Z,17.80
2017-12-03T11:29:22.043Z,18.37
2017-12-03T11:31:50.509Z,18.70
2017-12-03T11:34:19.652Z,18.37
2017-12-03T11:36:47.994Z,18.70
2017-12-03T11:39:16.331Z,19.40
2017-12-03T11:41:44.691Z,19.17
2017-12-03T11:44:13.074Z,18.63
2017-12-03T11:46:41.554Z,18.23
2017-12-03T11:49:09.909Z,18.00
2017-12-03T11:51:38.364Z,17.00
2017-12-03T11:54:07.774Z,17.77
2017-12-03T11:56:36.925Z,17.33
2017-12-03T11:59:05.511Z,18.17
2017-12-03T12:01:33.852Z,17.37
2017-12-03T12:04:02.200Z,17.70
2017-12-03T12:06:30.645Z,16.90
2017-12-03T12:08:59.005Z,17.23
2017-12-03T12:11:27.536Z,16.80
2017-12-03T12:13:55.880Z,18.33
2017-12-03T12:16:24.298Z,18.47
2017-12-03T12:18:52.733Z,18.83
2017-12-03T12:21:21.192Z,17.97
2017-12-03T12:23:49.525Z,17.00
2017-12-03T12:26:18.943Z,18.47
2017-12-03T12:28:47.267Z,18.23
2017-12-03T12:31:15.646Z,17.47
2017-12-03T12:33:43.993Z,15.93
2017-12-03T12:36:13.225Z,23.27
2017-12-03T12:38:41.829Z,19.50
2017-12-03T12:41:10.156Z,19.10
2017-12-03T12:43:38.777Z,18.77
2017-12-03T12:46:07.126Z,17.80
2017-12-03T12:48:35.516Z,16.83
2017-12-03T12:51:03.913Z,17.13
2017-12-03T12:53:32.272Z,15.67
2017-12-03T12:56:00.625Z,16.73
2017-12-03T12:58:29.757Z,16.43
2017-12-03T13:00:58.080Z,17.50
2017-12-03T13:03:26.430Z,16.33
2017-12-03T13:05:54.804Z,16.97
2017-12-03T13:08:23.167Z,16.67
2017-12-03T13:10:51.559Z,15.87
2017-12-03T13:13:19.902Z,14.47
2017-12-03T13:15:49.019Z,15.03
2017-12-03T13:18:17.347Z,15.67
2017-12-03T13:20:45.741Z,15.83
2017-12-03T13:23:14.325Z,15.20
2017-12-03T13:25:42.762Z,14.33
2017-12-03T13:28:11.092Z,13.07
2017-12-03T13:30:39.428Z,13.53
2017-12-03T13:33:07.794Z,12.60
2017-12-03T13:35:36.133Z,13.07
2017-12-03T13:38:05.287Z,13.90
2017-12-03T13:40:33.635Z,15.13
2017-12-03T13:43:02.029Z,14.83
2017-12-03T13:45:30.435Z,15.27
2017-12-03T13:47:58.775Z,16.10
2017-12-03T13:50:27.148Z,16.00
2017-12-03T13:52:55.500Z,15.83
2017-12-03T13:55:24.591Z,16.87
2017-12-03T13:57:53.717Z,17.37
2017-12-03T14:00:22.061Z,18.80
2017-12-03T14:02:51.180Z,18.83
2017-12-03T14:05:19.571Z,18.27
2017-12-03T14:07:47.924Z,19.37
2017-12-03T14:10:16.290Z,18.93
2017-12-03T14:12:44.632Z,19.33
2017-12-03T14:15:13.002Z,20.30
2017-12-03T14:17:41.346Z,20.10
2017-12-03T14:20:10.465Z,20.60
2017-12-03T14:22:39.668Z,19.77
2017-12-03T14:25:08.019Z,20.43
2017-12-03T14:27:37.150Z,20.13
2017-12-03T14:30:05.491Z,20.73
2017-12-03T14:32:34.584Z,19.57
2017-12-03T14:35:03.709Z,20.43
2017-12-03T14:37:32.051Z,18.97
2017-12-03T14:40:01.172Z,19.53
2017-12-03T14:42:29.515Z,19.67
2017-12-03T14:44:57.876Z,18.63
2017-12-03T14:47:26.449Z,19.80
2017-12-03T14:49:54.858Z,20.27
2017-12-03T14:52:23.194Z,21.00
2017-12-03T14:54:51.539Z,20.10
2017-12-03T14:57:19.974Z,20.83
2017-12-03T14:59:48.311Z,21.10
2017-12-03T15:02:16.673Z,20.13
2017-12-03T15:04:45.815Z,19.63
2017-12-03T15:07:14.301Z,20.13
2017-12-03T15:09:42.679Z,19.30
2017-12-03T15:12:11.001Z,19.03
2017-12-03T15:14:40.116Z,19.70
2017-12-03T15:17:08.474Z,19.93
2017-12-03T15:19:37.587Z,20.13
2017-12-03T15:22:06.744Z,20.77
2017-12-03T15:24:35.288Z,20.60
2017-12-03T15:27:03.628Z,20.80
2017-12-03T15:29:32.132Z,21.53
2017-12-03T15:32:00.626Z,24.17
2017-12-03T15:34:28.994Z,24.73
2017-12-03T15:36:57.359Z,25.33
2017-12-03T15:39:25.764Z,23.53
2017-12-03T15:41:54.115Z,24.60
2017-12-03T15:44:23.219Z,25.57
2017-12-03T15:46:52.347Z,26.17
2017-12-03T15:49:20.684Z,25.87
2017-12-03T15:51:49.820Z,27.20
2017-12-03T15:54:18.167Z,26.90
2017-12-03T15:56:47.281Z,28.17
2017-12-03T15:59:15.628Z,29.30
2017-12-03T16:01:44.070Z,30.10
2017-12-03T16:04:12.441Z,29.00
2017-12-03T16:06:40.814Z,29.73
2017-12-03T16:09:09.211Z,30.50
2017-12-03T16:11:37.545Z,31.33
2017-12-03T16:14:06.783Z,31.73
2017-12-03T16:16:35.200Z,30.37
2017-12-03T16:19:03.547Z,31.47
2017-12-03T16:21:31.918Z,30.83
2017-12-03T16:24:00.404Z,30.97
2017-12-03T16:26:28.765Z,31.43
2017-12-03T16:28:57.139Z,31.20
2017-12-03T16:31:25.882Z,30.80
2017-12-03T16:33:54.237Z,31.03
2017-12-03T16:36:22.607Z,29.60
2017-12-03T16:38:50.965Z,29.17
2017-12-03T16:41:19.307Z,29.57
2017-12-03T16:43:48.516Z,30.37
2017-12-03T16:46:17.654Z,29.83
2017-12-03T16:48:45.996Z,30.27
2017-12-03T16:51:14.332Z,30.63
2017-12-03T16:53:42.770Z,27.87
2017-12-03T16:56:11.123Z,29.03
2017-12-03T16:58:40.275Z,28.97
2017-12-03T17:01:08.631Z,28.40
2017-12-03T17:03:37.236Z,26.83
2017-12-03T17:06:05.619Z,28.50
2017-12-03T17:08:33.995Z,29.60
2017-12-03T17:11:02.373Z,29.20
2017-12-03T17:13:30.837Z,28.27
2017-12-03T17:15:59.259Z,27.60
2017-12-03T17:18:27.681Z,27.67
2017-12-03T17:20:56.110Z,28.67
2017-12-03T17:23:24.537Z,27.13
2017-12-03T17:25:53.265Z,27.50
2017-12-03T17:28:21.600Z,28.03
2017-12-03T17:30:50.949Z,28.30
2017-12-03T17:33:19.270Z,29.27
2017-12-03T17:35:48.421Z,29.70
2017-12-03T17:38:16.958Z,29.97
2017-12-03T17:40:46.121Z,27.93
2017-12-03T17:43:14.460Z,30.27
2017-12-03T17:45:42.810Z,29.27
2017-12-03T17:48:11.984Z,29.33
2017-12-03T17:50:40.331Z,28.37
2017-12-03T17:53:08.802Z,30.63
2017-12-03T17:55:37.141Z,29.50
2017-12-03T17:58:05.513Z,29.20
2017-12-03T18:00:34.012Z,30.53
2017-12-03T18:03:03.135Z,29.77
2017-12-03T18:05:31.632Z,30.13
2017-12-03T18:08:00.119Z,29.27
2017-12-03T18:10:28.438Z,29.13
2017-12-03T18:12:57.584Z,28.67
2017-12-03T18:15:25.954Z,28.47
2017-12-03T18:17:54.327Z,28.77
2017-12-03T18:20:22.735Z,29.07
2017-12-03T18:22:51.093Z,30.23
2017-12-03T18:25:19.453Z,31.67
2017-12-03T18:27:47.815Z,30.83
2017-12-03T18:30:16.972Z,31.57
2017-12-03T18:32:45.335Z,31.57
2017-12-03T18:35:13.688Z,31.83
2017-12-03T18:37:42.064Z,33.77
2017-12-03T18:40:10.449Z,33.80
2017-12-03T18:42:38.843Z,31.53
2017-12-03T18:45:07.203Z,34.73
2017-12-03T18:47:35.717Z,33.13
2017-12-03T18:50:04.043Z,32.27
2017-12-03T18:52:33.171Z,34.77
2017-12-03T18:55:01.521Z,34.43
2017-12-03T18:57:30.647Z,35.00
2017-12-03T18:59:59.013Z,35.37
2017-12-03T19:02:27.628Z,35.67
2017-12-03T19:04:56.030Z,35.43
2017-12-03T19:07:24.501Z,34.17
2017-12-03T19:09:52.900Z,35.30
2017-12-03T19:12:21.348Z,33.73
2017-12-03T19:14:49.708Z,33.63
2017-12-03T19:17:18.064Z,36.53
2017-12-03T19:19:46.433Z,33.73
2017-12-03T19:22:15.577Z,36.43
2017-12-03T19:24:43.952Z,33.83
2017-12-03T19:27:12.312Z,35.33
2017-12-03T19:29:40.727Z,35.93
2017-12-03T19:32:09.121Z,37.23
2017-12-03T19:34:37.544Z,37.07
2017-12-03T19:37:06.739Z,37.57
2017-12-03T19:39:35.142Z,36.20
2017-12-03T19:42:03.670Z,37.83
2017-12-03T19:44:32.144Z,37.03
2017-12-03T19:47:00.548Z,35.87
2017-12-03T19:49:28.944Z,35.07
2017-12-03T19:51:58.143Z,36.17
2017-12-03T19:54:27.572Z,37.33
2017-12-03T19:56:56.160Z,36.27
2017-12-03T19:59:24.549Z,37.47
2017-12-03T20:01:52.998Z,35.73
2017-12-03T20:04:22.200Z,39.13
2017-12-03T20:06:50.602Z,37.90
2017-12-03T20:09:18.964Z,36.23
2017-12-03T20:11:47.337Z,35.33
2017-12-03T20:14:15.853Z,35.37
2017-12-03T20:16:44.529Z,34.63
2017-12-03T20:19:12.946Z,36.97
2017-12-03T20:21:41.277Z,32.37
2017-12-03T20:24:09.838Z,32.90
2017-12-03T20:26:39.020Z,34.53
2017-12-03T20:29:07.435Z,33.37
2017-12-03T20:31:35.801Z,34.30
2017-12-03T20:34:04.540Z,33.57
2017-12-03T20:36:33.869Z,32.27
2017-12-03T20:39:02.284Z,34.53
2017-12-03T20:41:30.671Z,35.53
2017-12-03T20:43:59.115Z,35.20
2017-12-03T20:46:27.453Z,36.60
2017-12-03T20:48:55.830Z,35.70
2017-12-03T20:51:24.175Z,35.97
2017-12-03T20:53:52.559Z,37.33
2017-12-03T20:56:20.945Z,37.53
2017-12-03T20:58:49.310Z,36.30
2017-12-03T21:01:17.688Z,35.00
2017-12-03T21:03:46.061Z,34.33
2017-12-03T21:06:15.406Z,33.40
2017-12-03T21:08:43.799Z,35.23
2017-12-03T21:11:12.191Z,33.70
2017-12-03T21:13:40.647Z,34.43
2017-12-03T21:16:09.001Z,34.73
2017-12-03T21:18:37.465Z,33.93
2017-12-03T21:21:06.559Z,35.97
2017-12-03T21:23:34.926Z,36.13
2017-12-03T21:26:04.057Z,36.20
2017-12-03T21:28:32.405Z,36.77
2017-12-03T21:31:01.512Z,38.00
2017-12-03T21:33:29.860Z,36.67
2017-12-03T21:35:58.443Z,39.57
2017-12-03T21:38:26.916Z,36.27
2017-12-03T21:40:55.296Z,35.20
2017-12-03T21:43:23.639Z,34.60
2017-12-03T21:45:52.022Z,36.13
2017-12-03T21:48:20.401Z,33.90
2017-12-03T21:50:48.740Z,34.80
2017-12-03T21:53:17.870Z,35.70
2017-12-03T21:55:46.277Z,35.80
2017-12-03T21:58:14.684Z,35.10
2017-12-03T22:00:43.126Z,35.17
2017-12-03T22:03:11.481Z,35.67
2017-12-03T22:05:39.827Z,34.23
2017-12-03T22:08:08.957Z,34.40
2017-12-03T22:10:37.341Z,33.53
2017-12-03T22:13:05.734Z,35.67
2017-12-03T22:15:34.111Z,35.30
2017-12-03T22:18:02.464Z,37.03
2017-12-03T22:20:30.855Z,35.50
2017-12-03T22:22:59.441Z,35.27
2017-12-03T22:25:27.820Z,35.60
2017-12-03T22:27:56.174Z,35.00
2017-12-03T22:30:25.321Z,36.70
2017-12-03T22:32:53.684Z,36.23
2017-12-03T22:35:22.559Z,36.80
2017-12-03T22:37:50.916Z,36.10
2017-12-03T22:40:20.073Z,36.87
2017-12-03T22:42:48.442Z,35.30
2017-12-03T22:45:16.795Z,36.67
2017-12-03T22:47:45.166Z,33.13
2017-12-03T22:50:13.514Z,35.30
2017-12-03T22:52:41.880Z,34.53
2017-12-03T22:55:10.237Z,35.10
2017-12-03T22:57:38.756Z,35.27
2017-12-03T23:00:07.862Z,33.13
2017-12-03T23:02:36.215Z,33.27
2017-12-03T23:05:04.583Z,32.70
2017-12-03T23:07:32.923Z,33.30
2017-12-03T23:10:02.151Z,32.60
2017-12-03T23:12:30.579Z,32.20
2017-12-03T23:14:58.960Z,31.97
2017-12-03T23:17:28.084Z,32.30
2017-12-03T23:19:57.188Z,31.37
2017-12-03T23:22:25.558Z,32.27
2017-12-03T23:24:53.899Z,31.43
2017-12-03T23:27:23.066Z,29.90
2017-12-03T23:29:51.460Z,33.00
2017-12-03T23:32:19.757Z,33.23
2017-12-03T23:34:48.880Z,30.67
2017-12-03T23:37:17.231Z,29.30
2017-12-03T23:39:46.367Z,31.03
2017-12-03T23:42:14.935Z,30.03
2017-12-03T23:44:43.374Z,31.10
2017-12-03T23:47:11.720Z,27.90
2017-12-03T23:49:40.180Z,27.63
2017-12-03T23:52:09.316Z,28.07
2017-12-03T23:54:37.644Z,27.10
2017-12-03T23:57:06.781Z,26.20
2017-12-03T23:59:35.244Z,24.97
